This is the latest recevied weather packets stored in our database for station/object SQ9RHX-13. If no packets are shown the sender has not sent any weather packets the latest 10 day(s).
| Time | Temp. | Humidity | Pressure | Rain* | Wind** | Luminosity | Snow |
|---|---|---|---|---|---|---|---|
| 1777660803 | 13.33° C | 63% | 1029.3 hPa | 0 mm | - | 0 W/m² | - |
| 1777660504 | 13.33° C | 59% | 1029.2 hPa | 0 mm | - | 0 W/m² | - |
| 1777660203 | 13.89° C | 58% | 1029.1 hPa | 0 mm | - | 0 W/m² | - |
| 1777659906 | 14.44° C | 56% | 1029 hPa | 0 mm | - | 0 W/m² | - |
| 1777659602 | 15.56° C | 54% | 1029.2 hPa | 0 mm | - | 1 W/m² | - |
| 1777659302 | 15.56° C | 52% | 1029.1 hPa | 0 mm | - | 2 W/m² | - |
| 1777659003 | 16.67° C | 50% | 1028.9 hPa | 0 mm | - | 3 W/m² | - |
| 1777658703 | 17.22° C | 47% | 1028.9 hPa | 0 mm | - | 5 W/m² | - |
| 1777658406 | 17.78° C | 46% | 1029 hPa | 0 mm | - | 7 W/m² | - |
| 1777658103 | 18.33° C | 44% | 1028.9 hPa | 0 mm | - | 9 W/m² | - |
| 1777657802 | 18.89° C | 43% | 1028.8 hPa | 0 mm | - | 11 W/m² | - |
| 1777657505 | 19.44° C | 42% | 1028.7 hPa | 0 mm | - | 13 W/m² | - |
| 1777657202 | 19.44° C | 40% | 1028.7 hPa | 0 mm | - | 15 W/m² | - |
| 1777656903 | 20° C | 39% | 1028.9 hPa | 0 mm | - | 17 W/m² | - |
| 1777656605 | 20.56° C | 39% | 1028.9 hPa | 0 mm | - | 20 W/m² | - |
| 1777656303 | 20.56° C | 38% | 1028.7 hPa | 0 mm | - | 25 W/m² | - |
| 1777656002 | 20.56° C | 37% | 1028.6 hPa | 0 mm | - | 29 W/m² | - |
| 1777655703 | 20.56° C | 37% | 1028.7 hPa | 0 mm | - | 33 W/m² | - |
| 1777655405 | 21.11° C | 37% | 1028.7 hPa | 0 mm | - | 36 W/m² | - |
| 1777655104 | 21.11° C | 36% | 1028.7 hPa | 0 mm | - | 40 W/m² | - |
| 1777654803 | 21.11° C | 36% | 1028.6 hPa | 0 mm | - | 45 W/m² | - |
| 1777654504 | 21.67° C | 35% | 1028.8 hPa | 0 mm | - | 47 W/m² | - |
| 1777654203 | 21.67° C | 34% | 1028.8 hPa | 0 mm | - | 52 W/m² | - |
| 1777653904 | 21.67° C | 34% | 1028.9 hPa | 0 mm | - | 57 W/m² | - |
| 1777653602 | 21.67° C | 34% | 1029 hPa | 0 mm | - | 61 W/m² | - |
* Rain latest hour (hover to see other rain measurements)
** Current wind speed in m/s (hover to see current wind gust speed)